Time;durP1;ratioP1;P1;durP2;ratioP2;P2;SDS_P1;SDS_P2;PMS_P1;PMS_P2;Temp;Humidity;BMP_temperature;BMP_pressure;BME280_temperature;BME280_humidity;BME280_pressure;Samples;Min_cycle;Max_cycle;Signal;HPM_P1;HPM_P2
2023/10/05 00:00:57;;;;;;;0.40;0.40;;;12.70;99.90;;;;;;5052981;28;20040;-73
2023/10/05 00:03:22;;;;;;;0.43;0.43;;;12.70;99.90;;;;;;5066428;28;20063;-73
2023/10/05 00:05:49;;;;;;;0.40;0.40;;;12.60;99.90;;;;;;5070056;28;20382;-73
2023/10/05 00:08:15;;;;;;;0.32;0.32;;;12.70;99.90;;;;;;5053106;28;20052;-73
2023/10/05 00:10:40;;;;;;;0.40;0.40;;;12.60;99.90;;;;;;5070309;28;20520;-73
2023/10/05 00:13:07;;;;;;;0.20;0.20;;;12.60;99.90;;;;;;5061110;28;20483;-73
2023/10/05 00:15:36;;;;;;;1.45;0.73;;;12.60;99.90;;;;;;5058150;28;20410;-73
2023/10/05 00:18:05;;;;;;;0.38;0.38;;;12.60;99.90;;;;;;5047591;28;20398;-73
2023/10/05 00:20:38;;;;;;;0.40;0.40;;;12.60;99.90;;;;;;5049878;28;20036;-74
2023/10/05 00:23:08;;;;;;;0.63;0.63;;;12.60;99.90;;;;;;5055202;28;20553;-73
2023/10/05 00:25:34;;;;;;;0.50;0.50;;;12.60;99.90;;;;;;5069809;28;20572;-73
2023/10/05 00:28:05;;;;;;;0.70;0.70;;;12.60;99.90;;;;;;5064697;28;20040;-75
2023/10/05 00:30:31;;;;;;;0.40;0.40;;;12.60;99.90;;;;;;5066220;28;20072;-75
2023/10/05 00:32:59;;;;;;;0.40;0.40;;;12.70;99.90;;;;;;5068812;28;20055;-74
2023/10/05 00:35:26;;;;;;;0.40;0.40;;;12.70;99.90;;;;;;5054249;28;20176;-74
2023/10/05 00:37:55;;;;;;;0.43;0.43;;;12.70;99.90;;;;;;5041508;28;20030;-73
2023/10/05 00:40:37;;;;;;;0.22;0.22;;;12.70;99.90;;;;;;5042571;28;20074;-73
2023/10/05 00:43:48;;;;;;;0.32;0.32;;;12.70;99.90;;;;;;5045496;28;20043;-73
2023/10/05 00:45:56;;;;;;;0.63;0.55;;;12.70;99.90;;;;;;5045360;28;20127;-73
2023/10/05 00:51:30;;;;;;;0.30;0.30;;;12.70;99.90;;;;;;5018683;28;20041;-74
2023/10/05 00:53:58;;;;;;;0.35;0.35;;;12.70;99.90;;;;;;5048521;28;20105;-74
2023/10/05 00:56:24;;;;;;;3.10;0.65;;;12.70;99.90;;;;;;5047431;28;20036;-73
2023/10/05 00:58:54;;;;;;;0.50;0.50;;;12.70;99.90;;;;;;5068312;28;20036;-74
2023/10/05 01:01:27;;;;;;;0.30;0.30;;;12.60;99.90;;;;;;5063253;28;20052;-73
2023/10/05 01:06:49;;;;;;;0.40;0.40;;;12.60;99.90;;;;;;5056814;28;20398;-74
2023/10/05 01:09:39;;;;;;;;;;;12.70;99.90;;;;;;5066564;28;20390;-73
2023/10/05 01:15:02;;;;;;;0.40;0.40;;;12.70;99.90;;;;;;5063432;28;20036;-74
2023/10/05 01:17:27;;;;;;;0.70;0.70;;;12.70;99.90;;;;;;5057045;28;20082;-73
2023/10/05 01:19:58;;;;;;;0.85;0.70;;;12.70;99.90;;;;;;5053287;28;20174;-73
2023/10/05 01:22:32;;;;;;;0.60;0.60;;;12.70;99.90;;;;;;5045502;28;20071;-73
2023/10/05 01:24:59;;;;;;;0.38;0.38;;;12.70;99.90;;;;;;5039600;28;20589;-74
2023/10/05 01:27:29;;;;;;;0.30;0.30;;;12.60;99.90;;;;;;5048286;28;20127;-73
2023/10/05 01:29:56;;;;;;;0.30;0.30;;;12.70;99.90;;;;;;5056831;28;20040;-73
2023/10/05 01:32:22;;;;;;;0.32;0.32;;;12.70;99.90;;;;;;5065077;28;20520;-73
2023/10/05 01:34:51;;;;;;;0.28;0.28;;;12.70;99.90;;;;;;5060177;28;20032;-74
2023/10/05 01:37:18;;;;;;;0.40;0.40;;;12.70;99.90;;;;;;5062671;28;20040;-74
2023/10/05 01:39:44;;;;;;;0.30;0.30;;;12.70;99.90;;;;;;5043684;28;20040;-76
2023/10/05 01:42:14;;;;;;;0.30;0.30;;;12.70;99.90;;;;;;5058565;28;20519;-73
2023/10/05 01:44:47;;;;;;;0.88;0.52;;;12.70;99.90;;;;;;5042705;28;20114;-74
2023/10/05 01:47:17;;;;;;;0.38;0.38;;;12.70;99.90;;;;;;5054626;28;20048;-73
2023/10/05 01:49:45;;;;;;;1.17;0.75;;;12.60;99.90;;;;;;5037516;28;20090;-74
2023/10/05 01:52:11;;;;;;;0.30;0.30;;;12.70;99.90;;;;;;5044028;28;20040;-73
2023/10/05 01:54:37;;;;;;;0.40;0.40;;;12.70;99.90;;;;;;5046788;28;20040;-73
2023/10/05 01:57:08;;;;;;;0.50;0.50;;;12.70;99.90;;;;;;5054076;28;20410;-72
2023/10/05 01:59:35;;;;;;;0.40;0.40;;;12.70;99.90;;;;;;5040899;28;20476;-73
2023/10/05 02:02:01;;;;;;;0.38;0.38;;;12.70;99.90;;;;;;5055607;28;20561;-73
2023/10/05 02:04:29;;;;;;;0.40;0.40;;;12.70;99.90;;;;;;5037378;28;20083;-72
2023/10/05 02:06:55;;;;;;;0.40;0.40;;;12.70;99.90;;;;;;5043302;28;20043;-72
2023/10/05 02:09:21;;;;;;;0.52;0.52;;;12.70;99.90;;;;;;5062378;28;20421;-73
2023/10/05 02:11:47;;;;;;;0.20;0.20;;;12.70;99.90;;;;;;5052339;28;20119;-73
2023/10/05 02:14:16;;;;;;;0.50;0.50;;;12.70;99.90;;;;;;5071162;28;20047;-73
2023/10/05 02:16:50;;;;;;;0.32;0.32;;;12.70;99.90;;;;;;5048500;28;20111;-72
2023/10/05 02:19:16;;;;;;;0.40;0.40;;;12.70;99.90;;;;;;5055326;28;20346;-72
2023/10/05 02:21:43;;;;;;;0.22;0.22;;;12.70;99.90;;;;;;5054889;28;20035;-72
2023/10/05 02:24:12;;;;;;;1.58;1.00;;;12.70;99.90;;;;;;5068393;28;20562;-72
2023/10/05 02:29:31;;;;;;;0.30;0.30;;;12.70;99.90;;;;;;5065070;28;20047;-72
2023/10/05 02:34:33;;;;;;;0.32;0.32;;;12.70;99.90;;;;;;5062388;28;20124;-73
2023/10/05 02:37:00;;;;;;;11.50;0.80;;;12.70;99.90;;;;;;5059273;28;20042;-72
2023/10/05 02:39:26;;;;;;;0.20;0.20;;;12.70;99.90;;;;;;5044197;28;20032;-72
2023/10/05 02:41:54;;;;;;;1.30;0.40;;;12.70;99.90;;;;;;5039434;28;20550;-72
2023/10/05 02:46:47;;;;;;;0.30;0.30;;;12.70;99.90;;;;;;5058785;28;20043;-72
2023/10/05 02:49:18;;;;;;;0.30;0.30;;;12.70;99.90;;;;;;5065436;28;20032;-73
2023/10/05 02:51:44;;;;;;;0.50;0.50;;;12.70;99.90;;;;;;5066577;28;20302;-72
2023/10/05 02:54:10;;;;;;;0.30;0.30;;;12.70;99.90;;;;;;5050510;28;20295;-73
2023/10/05 02:56:37;;;;;;;0.68;0.68;;;12.70;99.90;;;;;;5051910;28;20041;-72
2023/10/05 02:59:07;;;;;;;0.40;0.40;;;12.70;99.90;;;;;;5042899;28;20239;-72
2023/10/05 03:01:37;;;;;;;0.40;0.40;;;12.70;99.90;;;;;;5071213;28;20048;-73
2023/10/05 03:04:28;;;;;;;0.30;0.30;;;12.70;99.90;;;;;;5066196;28;20399;-72
2023/10/05 03:06:54;;;;;;;0.47;0.47;;;12.70;99.90;;;;;;5061708;28;20093;-73
2023/10/05 03:09:21;;;;;;;0.80;0.80;;;12.80;99.90;;;;;;5049230;28;20039;-73
2023/10/05 03:11:47;;;;;;;0.40;0.40;;;12.80;99.90;;;;;;5060265;28;20118;-73
2023/10/05 03:14:17;;;;;;;0.60;0.60;;;12.80;99.90;;;;;;5068995;28;20475;-73
2023/10/05 03:16:56;;;;;;;0.40;0.40;;;12.80;99.90;;;;;;5071472;28;20052;-72
2023/10/05 03:19:21;;;;;;;0.75;0.75;;;12.80;99.90;;;;;;5070516;28;20044;-73
2023/10/05 03:21:50;;;;;;;0.40;0.40;;;12.90;99.90;;;;;;5058624;28;20067;-73
2023/10/05 03:24:18;;;;;;;0.40;0.40;;;12.80;99.90;;;;;;5062596;28;20047;-73
2023/10/05 03:26:45;;;;;;;;;;;12.90;99.90;;;;;;5054537;28;20048;-73
2023/10/05 03:29:11;;;;;;;0.30;0.30;;;12.90;99.90;;;;;;5056779;28;20328;-72
2023/10/05 03:31:52;;;;;;;0.30;0.30;;;12.90;99.90;;;;;;5047986;28;20119;-73
2023/10/05 03:34:19;;;;;;;0.40;0.40;;;12.90;99.90;;;;;;5034776;28;20028;-73
2023/10/05 03:36:48;;;;;;;0.50;0.50;;;12.80;99.90;;;;;;5057068;28;20082;-73
2023/10/05 03:39:14;;;;;;;0.40;0.40;;;12.80;99.90;;;;;;5052935;28;20055;-72
2023/10/05 03:41:40;;;;;;;0.45;0.45;;;12.80;99.90;;;;;;5045898;28;20040;-73
2023/10/05 03:44:07;;;;;;;0.70;0.70;;;12.80;99.90;;;;;;5053128;28;20048;-72
2023/10/05 03:46:35;;;;;;;0.50;0.50;;;12.80;99.90;;;;;;5059054;28;20066;-73
2023/10/05 03:49:01;;;;;;;0.40;0.40;;;12.80;99.90;;;;;;5066135;28;20031;-73
2023/10/05 03:51:28;;;;;;;1.10;1.10;;;12.80;99.90;;;;;;5059734;28;20036;-73
2023/10/05 03:53:54;;;;;;;0.30;0.30;;;12.80;99.90;;;;;;5062757;28;20090;-72
2023/10/05 03:56:21;;;;;;;0.35;0.35;;;12.80;99.90;;;;;;5066738;28;20277;-73
2023/10/05 03:58:48;;;;;;;0.40;0.40;;;12.80;99.90;;;;;;5046804;28;20033;-73
2023/10/05 04:01:15;;;;;;;0.50;0.50;;;12.80;99.90;;;;;;5057904;28;20060;-73
2023/10/05 04:03:44;;;;;;;0.70;0.63;;;12.80;99.90;;;;;;5049321;28;20035;-73
2023/10/05 04:06:26;;;;;;;0.60;0.60;;;12.80;99.90;;;;;;5066187;28;20036;-72
2023/10/05 04:08:57;;;;;;;0.40;0.40;;;12.80;99.90;;;;;;5064721;28;20039;-73
2023/10/05 04:11:26;;;;;;;0.30;0.30;;;12.90;99.90;;;;;;5065190;28;20074;-73
2023/10/05 04:13:55;;;;;;;0.50;0.50;;;12.90;99.90;;;;;;5045471;28;20717;-73
2023/10/05 04:16:26;;;;;;;0.55;0.55;;;12.80;99.90;;;;;;5063597;28;20056;-73
2023/10/05 04:18:53;;;;;;;0.40;0.40;;;12.80;99.90;;;;;;5048481;28;20040;-74
2023/10/05 04:21:22;;;;;;;0.30;0.30;;;12.90;99.90;;;;;;5048547;28;20033;-73
2023/10/05 04:23:52;;;;;;;0.40;0.40;;;12.90;99.90;;;;;;5067336;28;20036;-73
2023/10/05 04:26:22;;;;;;;0.30;0.30;;;12.90;99.90;;;;;;5050584;28;20559;-73
2023/10/05 04:28:52;;;;;;;0.40;0.40;;;12.80;99.90;;;;;;5059271;28;20051;-73
2023/10/05 04:31:25;;;;;;;1.27;0.47;;;12.80;99.90;;;;;;5039453;28;20067;-73
2023/10/05 04:33:55;;;;;;;0.40;0.40;;;12.90;99.90;;;;;;5051973;28;20029;-73
2023/10/05 04:36:22;;;;;;;0.40;0.40;;;12.90;99.90;;;;;;5057581;28;20037;-73
2023/10/05 04:38:55;;;;;;;0.30;0.30;;;12.90;99.90;;;;;;5060702;28;20489;-73
2023/10/05 04:41:28;;;;;;;0.30;0.30;;;12.90;99.90;;;;;;5059453;28;20532;-73
2023/10/05 04:43:54;;;;;;;0.30;0.30;;;12.90;99.90;;;;;;5048621;28;20032;-73
2023/10/05 04:46:20;;;;;;;0.47;0.47;;;12.90;99.90;;;;;;5053092;28;20052;-73
2023/10/05 04:48:55;;;;;;;0.65;0.60;;;12.90;99.90;;;;;;5037294;28;20575;-73
2023/10/05 04:51:30;;;;;;;0.40;0.40;;;12.90;99.90;;;;;;5053962;28;20494;-73
2023/10/05 04:53:59;;;;;;;0.80;0.80;;;12.90;99.90;;;;;;5057162;28;20056;-73
2023/10/05 04:56:40;;;;;;;0.73;0.50;;;13.00;99.90;;;;;;5042400;28;20040;-73
2023/10/05 05:07:00;;;;;;;0.50;0.50;;;12.90;99.90;;;;;;5059651;28;20044;-73
2023/10/05 05:09:31;;;;;;;0.30;0.30;;;13.00;99.90;;;;;;5039750;28;20041;-73
2023/10/05 05:12:03;;;;;;;2.25;1.15;;;13.00;99.90;;;;;;5049177;28;20042;-73
2023/10/05 05:14:33;;;;;;;0.30;0.30;;;13.00;99.90;;;;;;5048263;28;20075;-73
2023/10/05 05:17:05;;;;;;;0.47;0.47;;;13.00;99.90;;;;;;5060214;28;20465;-73
2023/10/05 05:19:32;;;;;;;0.30;0.30;;;13.00;99.90;;;;;;5043415;28;20067;-73
2023/10/05 05:22:04;;;;;;;0.47;0.47;;;13.00;99.90;;;;;;5065681;28;20032;-73
2023/10/05 05:24:31;;;;;;;0.50;0.50;;;13.00;99.90;;;;;;5069370;28;20126;-73
2023/10/05 05:29:41;;;;;;;0.40;0.40;;;13.00;99.90;;;;;;5068833;28;20062;-73
2023/10/05 05:32:13;;;;;;;0.40;0.40;;;13.00;99.90;;;;;;5058692;28;20478;-73
2023/10/05 05:34:41;;;;;;;0.40;0.40;;;13.00;99.90;;;;;;5059383;28;20513;-73
2023/10/05 05:37:08;;;;;;;;;;;13.00;99.90;;;;;;5045100;28;20044;-73
2023/10/05 05:39:39;;;;;;;0.57;0.57;;;13.00;99.90;;;;;;5062240;28;19915;-73
2023/10/05 05:42:14;;;;;;;0.40;0.40;;;13.00;99.90;;;;;;5058354;28;20418;-73
2023/10/05 05:44:40;;;;;;;0.30;0.30;;;13.00;99.90;;;;;;5044904;28;20475;-73
2023/10/05 05:47:10;;;;;;;0.47;0.47;;;13.00;99.90;;;;;;5046069;28;20044;-73
2023/10/05 05:49:36;;;;;;;0.73;0.73;;;13.00;99.90;;;;;;5071116;28;20055;-72
2023/10/05 05:52:05;;;;;;;0.30;0.30;;;13.00;99.90;;;;;;5064343;28;20236;-73
2023/10/05 05:54:35;;;;;;;0.40;0.40;;;13.00;99.90;;;;;;5047151;28;20040;-73
2023/10/05 05:57:01;;;;;;;0.20;0.20;;;13.00;99.90;;;;;;5063049;28;20048;-72
2023/10/05 05:59:27;;;;;;;1.55;1.10;;;13.00;99.90;;;;;;5041459;28;20033;-73
2023/10/05 06:01:53;;;;;;;0.30;0.30;;;12.90;99.90;;;;;;5063737;28;20892;-73
2023/10/05 06:04:19;;;;;;;0.68;0.68;;;13.00;99.90;;;;;;5062832;28;20117;-73
2023/10/05 06:06:48;;;;;;;0.45;0.45;;;13.00;99.90;;;;;;5066071;28;20082;-73
2023/10/05 06:09:19;;;;;;;1.15;1.15;;;13.00;99.90;;;;;;5066717;28;20125;-75
2023/10/05 06:11:49;;;;;;;0.40;0.40;;;13.00;99.90;;;;;;5051623;28;20040;-74
2023/10/05 06:14:17;;;;;;;0.60;0.60;;;13.00;99.90;;;;;;5065246;28;20072;-74
2023/10/05 06:16:42;;;;;;;0.32;0.32;;;13.00;99.90;;;;;;5060701;28;20170;-73
2023/10/05 06:19:08;;;;;;;0.30;0.30;;;13.00;99.90;;;;;;5038681;28;20127;-73
2023/10/05 06:21:35;;;;;;;0.40;0.40;;;13.10;99.90;;;;;;5066147;28;20051;-73
2023/10/05 06:24:05;;;;;;;0.50;0.50;;;13.10;99.90;;;;;;5046175;28;20047;-73
2023/10/05 06:26:30;;;;;;;0.50;0.50;;;13.10;99.90;;;;;;5061970;28;20040;-73
2023/10/05 06:28:56;;;;;;;0.68;0.68;;;13.20;99.90;;;;;;5061086;28;20062;-73
2023/10/05 06:31:24;;;;;;;0.45;0.45;;;13.20;99.90;;;;;;5059768;28;20041;-73
2023/10/05 06:33:52;;;;;;;0.30;0.30;;;13.30;99.90;;;;;;5041517;28;20051;-74
2023/10/05 06:36:17;;;;;;;0.45;0.45;;;13.30;99.90;;;;;;5054726;28;20161;-74
2023/10/05 06:38:43;;;;;;;0.82;0.82;;;13.40;99.90;;;;;;5063273;28;20127;-74
2023/10/05 06:41:08;;;;;;;0.68;0.68;;;13.40;99.90;;;;;;5067765;28;20047;-74
2023/10/05 06:43:35;;;;;;;0.30;0.30;;;13.40;99.90;;;;;;5070756;28;20059;-74
2023/10/05 06:46:17;;;;;;;0.38;0.38;;;13.50;99.90;;;;;;5066682;28;20115;-74
2023/10/05 06:48:46;;;;;;;0.60;0.60;;;13.50;99.90;;;;;;5054925;28;20538;-74
2023/10/05 06:51:14;;;;;;;0.52;0.50;;;13.60;99.90;;;;;;5067015;28;20040;-73
2023/10/05 06:53:40;;;;;;;0.40;0.40;;;13.60;99.90;;;;;;5056306;28;20040;-72
2023/10/05 06:56:06;;;;;;;0.40;0.40;;;13.70;99.90;;;;;;5061082;28;20093;-73
2023/10/05 06:58:31;;;;;;;0.35;0.35;;;13.70;99.90;;;;;;5068520;28;20047;-74
2023/10/05 07:00:57;;;;;;;0.73;0.55;;;13.70;99.90;;;;;;5057402;28;20086;-74
2023/10/05 07:03:23;;;;;;;0.40;0.40;;;13.80;99.90;;;;;;5061265;28;20071;-73
2023/10/05 07:05:48;;;;;;;0.50;0.50;;;13.70;99.90;;;;;;5063744;28;20056;-73
2023/10/05 07:08:14;;;;;;;0.50;0.50;;;13.80;99.90;;;;;;5047109;28;20035;-73
2023/10/05 07:10:42;;;;;;;0.30;0.30;;;13.80;99.90;;;;;;5046308;28;20041;-74
2023/10/05 07:13:09;;;;;;;0.63;0.63;;;13.80;99.90;;;;;;5059357;28;20062;-73
2023/10/05 07:15:35;;;;;;;0.50;0.50;;;13.80;99.90;;;;;;5059949;28;20415;-74
2023/10/05 07:18:00;;;;;;;0.40;0.40;;;13.80;99.90;;;;;;5057636;28;20564;-73
2023/10/05 07:20:27;;;;;;;0.55;0.55;;;13.80;99.90;;;;;;5056425;28;20119;-74
2023/10/05 07:22:54;;;;;;;0.52;0.52;;;13.90;99.90;;;;;;5057078;28;20044;-73
2023/10/05 07:25:21;;;;;;;0.40;0.40;;;13.90;99.90;;;;;;5051140;28;20438;-73
2023/10/05 07:27:47;;;;;;;1.98;0.90;;;13.90;99.90;;;;;;5062844;28;20105;-74
2023/10/05 07:30:14;;;;;;;0.60;0.55;;;14.00;99.90;;;;;;5073947;28;20181;-73
2023/10/05 07:32:40;;;;;;;0.98;0.93;;;14.00;99.90;;;;;;5045282;28;20123;-73
2023/10/05 07:35:07;;;;;;;0.40;0.40;;;14.10;99.90;;;;;;5065103;28;20119;-73
2023/10/05 07:37:36;;;;;;;0.73;0.63;;;14.10;99.90;;;;;;5062010;28;20072;-73
2023/10/05 07:40:09;;;;;;;0.55;0.55;;;14.20;99.90;;;;;;5050903;28;20032;-73
2023/10/05 07:42:37;;;;;;;0.60;0.60;;;14.20;99.90;;;;;;5056228;28;20382;-74
2023/10/05 07:45:07;;;;;;;0.77;0.77;;;14.20;99.90;;;;;;5057587;28;20059;-74
2023/10/05 07:47:39;;;;;;;0.40;0.40;;;14.20;99.90;;;;;;5059959;28;20266;-74
2023/10/05 07:50:06;;;;;;;0.40;0.40;;;14.30;99.90;;;;;;5043292;28;20259;-74
2023/10/05 07:52:32;;;;;;;0.45;0.45;;;14.30;99.90;;;;;;5066296;28;20044;-74
2023/10/05 07:54:57;;;;;;;0.43;0.43;;;14.30;99.90;;;;;;5067502;28;20024;-74
2023/10/05 07:57:23;;;;;;;0.68;0.63;;;14.40;99.90;;;;;;5064562;28;20127;-74
2023/10/05 07:59:49;;;;;;;0.60;0.60;;;14.40;99.90;;;;;;5059883;28;20036;-76
2023/10/05 08:02:15;;;;;;;0.80;0.80;;;14.40;99.90;;;;;;5067079;28;20059;-74
2023/10/05 08:04:42;;;;;;;0.52;0.52;;;14.50;99.90;;;;;;5050790;28;20417;-74
2023/10/05 08:07:08;;;;;;;0.75;0.75;;;14.60;99.90;;;;;;5037157;28;20432;-74
2023/10/05 08:09:34;;;;;;;0.40;0.40;;;14.60;99.90;;;;;;5068373;28;20119;-74
2023/10/05 08:12:00;;;;;;;2.40;1.40;;;14.70;99.90;;;;;;5043413;28;20056;-75
2023/10/05 08:14:30;;;;;;;0.50;0.50;;;14.80;99.90;;;;;;5052561;28;20061;-74
2023/10/05 08:16:56;;;;;;;0.55;0.55;;;14.80;99.90;;;;;;5050187;28;20039;-74
2023/10/05 08:19:25;;;;;;;0.50;0.50;;;14.80;99.90;;;;;;5041299;28;20028;-74
2023/10/05 08:21:54;;;;;;;0.50;0.50;;;14.80;99.90;;;;;;5064789;28;20067;-74
2023/10/05 08:24:21;;;;;;;0.47;0.47;;;14.90;99.90;;;;;;5057169;28;20040;-74
2023/10/05 08:26:49;;;;;;;0.60;0.60;;;14.90;99.90;;;;;;5048270;28;20363;-74
2023/10/05 08:29:17;;;;;;;0.70;0.70;;;14.90;99.90;;;;;;5068233;28;20048;-74
2023/10/05 08:31:44;;;;;;;1.45;1.23;;;15.00;99.90;;;;;;5046736;28;20058;-74
2023/10/05 08:34:22;;;;;;;0.77;0.63;;;15.00;99.90;;;;;;5056084;28;20048;-75
2023/10/05 08:36:54;;;;;;;;;;;15.10;99.90;;;;;;5064601;28;20034;-74
2023/10/05 08:39:26;;;;;;;2.03;1.92;;;15.20;99.90;;;;;;5051696;28;19973;-74
2023/10/05 08:42:06;;;;;;;0.30;0.30;;;15.20;99.90;;;;;;5044032;28;20044;-74
2023/10/05 08:44:39;;;;;;;0.88;0.82;;;15.20;99.90;;;;;;5061440;28;20043;-76
2023/10/05 08:47:08;;;;;;;0.68;0.68;;;15.30;99.90;;;;;;5064290;28;20596;-74
2023/10/05 08:49:34;;;;;;;0.63;0.63;;;15.30;99.90;;;;;;5050665;28;20043;-74
2023/10/05 08:52:08;;;;;;;0.52;0.52;;;15.30;99.90;;;;;;5065671;28;20032;-74
2023/10/05 08:54:34;;;;;;;0.40;0.40;;;15.40;99.90;;;;;;5064416;28;20127;-74
2023/10/05 08:57:08;;;;;;;0.80;0.65;;;15.40;99.90;;;;;;5057487;28;20442;-74
2023/10/05 08:59:34;;;;;;;0.40;0.40;;;15.40;99.90;;;;;;5060242;28;20039;-75
2023/10/05 09:02:00;;;;;;;0.70;0.70;;;15.40;99.90;;;;;;5042178;28;20126;-73
2023/10/05 09:04:47;;;;;;;0.30;0.30;;;15.40;99.90;;;;;;5058886;28;20059;-74
2023/10/05 09:07:35;;;;;;;0.80;0.80;;;15.40;99.90;;;;;;5054554;28;20045;-75
2023/10/05 09:10:01;;;;;;;0.40;0.40;;;15.40;99.90;;;;;;5059273;28;20051;-74
2023/10/05 09:12:38;;;;;;;0.75;0.75;;;15.40;99.90;;;;;;5043888;28;20036;-74
2023/10/05 09:15:18;;;;;;;1.05;1.00;;;15.40;99.90;;;;;;5065548;28;20070;-74
2023/10/05 09:18:17;;;;;;;0.68;0.68;;;15.40;99.90;;;;;;5058212;28;20054;-74
2023/10/05 09:20:47;;;;;;;0.80;0.80;;;15.40;99.90;;;;;;5040564;28;20032;-74
2023/10/05 09:23:24;;;;;;;0.90;0.90;;;15.40;99.90;;;;;;5041438;28;20047;-74
2023/10/05 09:25:50;;;;;;;0.40;0.40;;;15.50;99.90;;;;;;5063487;28;20045;-74
2023/10/05 09:28:45;;;;;;;0.50;0.50;;;15.40;99.90;;;;;;5070178;28;20071;-74
2023/10/05 09:31:11;;;;;;;0.65;0.65;;;15.40;99.90;;;;;;5066607;28;20105;-74
2023/10/05 09:33:47;;;;;;;0.65;0.65;;;15.40;99.90;;;;;;5055180;28;20039;-74
2023/10/05 09:36:22;;;;;;;0.82;0.82;;;15.40;99.90;;;;;;5056643;28;20044;-74
2023/10/05 09:38:48;;;;;;;0.40;0.40;;;15.40;99.90;;;;;;5076592;28;20028;-74
2023/10/05 09:41:19;;;;;;;0.85;0.85;;;15.40;99.90;;;;;;5055086;28;20478;-74
2023/10/05 09:43:58;;;;;;;0.90;0.77;;;15.40;99.90;;;;;;5069964;28;20135;-73
2023/10/05 09:46:27;;;;;;;0.80;0.80;;;15.40;99.90;;;;;;5052062;28;20085;-73
2023/10/05 09:48:53;;;;;;;0.50;0.50;;;15.50;99.90;;;;;;5063580;28;20109;-75
2023/10/05 09:51:19;;;;;;;0.40;0.40;;;15.50;99.90;;;;;;5073885;28;20040;-74
2023/10/05 09:53:47;;;;;;;0.40;0.40;;;15.50;99.90;;;;;;5070330;28;20040;-74
2023/10/05 09:56:14;;;;;;;1.50;0.70;;;15.50;99.90;;;;;;5074517;28;20028;-74
2023/10/05 09:58:41;;;;;;;0.40;0.40;;;15.50;99.90;;;;;;5063819;28;20570;-74
2023/10/05 10:01:13;;;;;;;0.50;0.50;;;15.50;99.90;;;;;;5049541;28;20040;-74
2023/10/05 10:03:45;;;;;;;0.75;0.75;;;15.50;99.90;;;;;;5054699;28;20048;-74
2023/10/05 10:06:14;;;;;;;0.40;0.40;;;15.40;99.90;;;;;;5056326;28;20040;-74
2023/10/05 10:08:51;;;;;;;0.50;0.50;;;15.40;99.90;;;;;;5043223;28;20037;-74
2023/10/05 10:11:18;;;;;;;0.40;0.40;;;15.50;99.90;;;;;;5043075;28;20037;-74
2023/10/05 10:13:52;;;;;;;0.40;0.40;;;15.40;99.90;;;;;;5064228;28;20036;-73
2023/10/05 10:16:22;;;;;;;0.30;0.30;;;15.50;99.90;;;;;;5058230;28;20494;-74
2023/10/05 10:19:04;;;;;;;0.38;0.38;;;15.40;99.90;;;;;;5061831;28;20041;-74
2023/10/05 10:21:57;;;;;;;0.40;0.40;;;15.50;99.90;;;;;;5056850;28;20116;-75
2023/10/05 10:24:28;;;;;;;0.57;0.57;;;15.50;99.90;;;;;;5059068;28;20044;-75
2023/10/05 10:27:15;;;;;;;0.30;0.30;;;15.50;99.90;;;;;;5058485;28;20039;-74
2023/10/05 10:29:44;;;;;;;0.40;0.40;;;15.40;99.90;;;;;;5048931;28;20037;-74
2023/10/05 10:32:18;;;;;;;0.30;0.30;;;15.50;99.90;;;;;;5058527;28;20045;-74
2023/10/05 10:34:51;;;;;;;0.35;0.35;;;15.50;99.90;;;;;;5060207;28;20101;-74
2023/10/05 10:37:39;;;;;;;0.40;0.40;;;15.40;99.90;;;;;;5045946;28;20036;-74
2023/10/05 10:40:30;;;;;;;0.65;0.65;;;15.50;99.90;;;;;;5058690;28;20041;-74
2023/10/05 10:45:33;;;;;;;0.30;0.30;;;15.50;99.90;;;;;;5062910;28;20044;-74
2023/10/05 10:48:00;;;;;;;0.40;0.40;;;15.50;99.90;;;;;;5041487;28;20044;-75
2023/10/05 10:50:35;;;;;;;0.50;0.50;;;15.50;99.90;;;;;;5041941;28;20036;-74
2023/10/05 10:53:12;;;;;;;0.25;0.25;;;15.60;99.90;;;;;;5064425;28;20045;-74
2023/10/05 10:55:42;;;;;;;0.30;0.30;;;15.60;99.90;;;;;;5064550;28;20032;-73
2023/10/05 10:58:16;;;;;;;0.40;0.40;;;15.60;99.90;;;;;;5057429;28;20483;-73
2023/10/05 11:00:57;;;;;;;0.45;0.45;;;15.70;99.90;;;;;;5036253;28;20040;-74
2023/10/05 11:03:36;;;;;;;0.40;0.40;;;15.70;99.90;;;;;;5063447;28;20566;-74
2023/10/05 11:06:04;;;;;;;0.40;0.40;;;15.80;99.90;;;;;;5050753;28;23294;-74
2023/10/05 11:08:40;;;;;;;0.40;0.40;;;16.00;99.90;;;;;;5050139;28;20087;-75
2023/10/05 11:11:15;;;;;;;0.43;0.43;;;16.30;99.90;;;;;;5038320;28;20044;-74
2023/10/05 11:13:49;;;;;;;0.20;0.20;;;16.50;99.90;;;;;;5068582;28;20041;-74
2023/10/05 11:16:19;;;;;;;0.98;0.95;;;16.80;99.90;;;;;;5046188;28;20124;-74
2023/10/05 11:18:58;;;;;;;0.50;0.43;;;16.90;99.90;;;;;;5045696;28;20532;-74
2023/10/05 11:21:32;;;;;;;0.55;0.55;;;17.00;99.90;;;;;;5067333;28;20037;-74
2023/10/05 11:24:06;;;;;;;0.30;0.30;;;17.10;99.90;;;;;;5045255;28;20120;-74
2023/10/05 11:26:33;;;;;;;0.60;0.60;;;17.30;99.90;;;;;;5043792;28;20485;-74
2023/10/05 11:29:07;;;;;;;0.40;0.40;;;17.50;99.90;;;;;;5062635;28;20415;-74
2023/10/05 11:31:34;;;;;;;0.40;0.40;;;17.70;99.90;;;;;;5060561;28;20043;-74
2023/10/05 11:34:04;;;;;;;0.40;0.40;;;17.80;99.90;;;;;;5067355;28;20498;-74
2023/10/05 11:36:33;;;;;;;0.40;0.40;;;17.80;99.90;;;;;;5068378;28;20045;-75
2023/10/05 11:39:00;;;;;;;0.50;0.50;;;17.80;99.90;;;;;;5039027;28;20562;-75
2023/10/05 11:41:30;;;;;;;0.68;0.68;;;17.70;99.90;;;;;;5065369;28;20097;-75
2023/10/05 11:43:56;;;;;;;0.30;0.30;;;17.70;99.90;;;;;;5060946;28;20076;-75
2023/10/05 11:46:26;;;;;;;0.40;0.40;;;17.70;99.90;;;;;;5044514;28;20040;-75
2023/10/05 11:48:55;;;;;;;0.35;0.35;;;17.80;99.90;;;;;;5052008;28;20082;-75
2023/10/05 11:51:26;;;;;;;0.55;0.55;;;18.00;99.90;;;;;;5070097;28;20127;-76
2023/10/05 11:53:55;;;;;;;0.30;0.30;;;18.10;99.90;;;;;;5072222;28;20109;-74
2023/10/05 11:56:30;;;;;;;0.40;0.40;;;18.20;99.90;;;;;;5054323;28;20110;-74
2023/10/05 11:59:00;;;;;;;0.47;0.47;;;18.40;99.90;;;;;;5068703;28;20456;-79
2023/10/05 12:01:26;;;;;;;0.40;0.40;;;18.70;99.90;;;;;;5056727;28;20040;-75
2023/10/05 12:03:54;;;;;;;0.50;0.50;;;18.80;99.90;;;;;;5068126;28;20060;-75
2023/10/05 12:06:25;;;;;;;0.80;0.77;;;18.80;99.90;;;;;;5063919;28;20041;-75
2023/10/05 12:09:00;;;;;;;0.52;0.52;;;18.90;99.90;;;;;;5050592;28;20152;-76
2023/10/05 12:11:29;;;;;;;0.45;0.45;;;18.90;99.90;;;;;;5042017;28;20091;-75
2023/10/05 12:13:58;;;;;;;0.30;0.30;;;19.00;99.90;;;;;;5066508;28;20040;-75
2023/10/05 12:16:27;;;;;;;0.30;0.30;;;19.00;99.90;;;;;;5059885;28;20036;-76
2023/10/05 12:18:54;;;;;;;0.30;0.30;;;19.00;99.90;;;;;;5047494;28;20036;-76
2023/10/05 12:21:23;;;;;;;1.40;0.60;;;18.90;99.90;;;;;;5049979;28;20036;-76
2023/10/05 12:23:48;;;;;;;0.50;0.50;;;18.80;99.90;;;;;;5043777;28;20517;-75
2023/10/05 12:26:15;;;;;;;3.75;0.82;;;18.80;99.90;;;;;;5042064;28;20037;-75
2023/10/05 12:28:41;;;;;;;0.50;0.50;;;18.70;99.90;;;;;;5059012;28;20040;-75
2023/10/05 12:31:09;;;;;;;0.30;0.30;;;18.50;99.90;;;;;;5062109;28;20048;-75
2023/10/05 12:33:39;;;;;;;0.50;0.50;;;18.40;99.90;;;;;;5065414;28;20512;-75
2023/10/05 12:36:08;;;;;;;0.40;0.40;;;18.30;99.90;;;;;;5062248;28;20044;-75
2023/10/05 12:38:35;;;;;;;0.40;0.40;;;18.20;99.90;;;;;;5057857;28;20041;-75
2023/10/05 12:41:13;;;;;;;0.50;0.50;;;18.20;99.90;;;;;;5051016;28;20077;-75
2023/10/05 12:43:43;;;;;;;0.50;0.50;;;18.30;99.90;;;;;;5049905;28;20041;-75
2023/10/05 12:46:10;;;;;;;1.58;1.38;;;18.30;99.90;;;;;;5041680;28;20036;-75
2023/10/05 12:48:40;;;;;;;;;;;18.30;99.90;;;;;;5044643;28;20154;-73
2023/10/05 12:51:07;;;;;;;0.30;0.30;;;18.30;99.90;;;;;;5059287;28;19917;-75
2023/10/05 12:53:36;;;;;;;0.40;0.40;;;18.20;99.90;;;;;;5066609;28;20049;-75
2023/10/05 12:56:03;;;;;;;0.50;0.50;;;18.20;99.90;;;;;;5066667;28;20497;-75
2023/10/05 12:58:29;;;;;;;0.30;0.30;;;18.00;99.90;;;;;;5063415;28;21782;-76
2023/10/05 13:00:56;;;;;;;0.63;0.63;;;18.00;99.90;;;;;;5062424;28;20036;-75
2023/10/05 13:03:25;;;;;;;0.22;0.22;;;17.80;99.90;;;;;;5039833;28;20417;-75
2023/10/05 13:05:51;;;;;;;0.75;0.60;;;17.80;99.90;;;;;;5047552;28;20051;-75
2023/10/05 13:08:17;;;;;;;0.55;0.55;;;17.70;99.90;;;;;;5053760;28;20044;-75
2023/10/05 13:10:44;;;;;;;0.40;0.40;;;17.70;99.90;;;;;;5065998;28;20048;-75
2023/10/05 13:13:17;;;;;;;0.20;0.20;;;17.70;99.90;;;;;;5058908;28;20090;-75
2023/10/05 13:15:44;;;;;;;0.30;0.30;;;17.70;99.90;;;;;;5048273;28;20294;-75
2023/10/05 13:18:19;;;;;;;0.45;0.45;;;17.70;99.90;;;;;;5062193;28;20522;-72
2023/10/05 13:20:50;;;;;;;0.30;0.30;;;17.70;99.90;;;;;;5065230;28;20075;-72
2023/10/05 13:23:21;;;;;;;0.30;0.30;;;17.70;99.90;;;;;;5060649;28;20083;-72
2023/10/05 13:25:51;;;;;;;0.30;0.30;;;17.70;99.90;;;;;;5065822;28;20028;-72
2023/10/05 13:28:20;;;;;;;0.35;0.35;;;17.70;99.90;;;;;;5062899;28;20048;-72
2023/10/05 13:30:47;;;;;;;0.30;0.30;;;17.80;99.90;;;;;;5060776;28;20131;-72